createdAt,value
2018-12-19T00:02:23.193Z,95531.00
2018-12-19T00:04:52.613Z,95530.00
2018-12-19T00:07:21.969Z,95522.00
2018-12-19T00:09:51.368Z,95517.00
2018-12-19T00:12:21.025Z,95499.00
2018-12-19T00:14:50.444Z,95498.00
2018-12-19T00:17:19.855Z,95504.00
2018-12-19T00:19:49.453Z,95498.00
2018-12-19T00:22:18.817Z,95496.00
2018-12-19T00:24:48.237Z,95507.00
2018-12-19T00:27:18.571Z,95491.00
2018-12-19T00:29:48.493Z,95496.00
2018-12-19T00:32:18.444Z,95490.00
2018-12-19T00:34:47.828Z,95487.00
2018-12-19T00:37:17.187Z,95485.00
2018-12-19T00:39:46.606Z,95485.00
2018-12-19T00:42:16.114Z,95472.00
2018-12-19T00:44:45.438Z,95469.00
2018-12-19T00:47:14.801Z,95467.00
2018-12-19T00:49:44.164Z,95462.00
2018-12-19T00:52:14.172Z,95449.00
2018-12-19T00:54:43.548Z,95460.00
2018-12-19T00:57:12.929Z,95463.00
2018-12-19T00:59:42.466Z,95450.00
2018-12-19T01:02:11.847Z,95458.00
2018-12-19T01:04:41.212Z,95461.00
2018-12-19T01:07:11.299Z,95469.00
2018-12-19T01:09:40.837Z,95465.00
2018-12-19T01:12:10.987Z,95468.00
2018-12-19T01:14:40.443Z,95479.00
2018-12-19T01:17:09.859Z,95478.00
2018-12-19T01:19:39.263Z,95482.00
2018-12-19T01:22:08.612Z,95485.00
2018-12-19T01:24:38.603Z,95490.00
2018-12-19T01:27:08.129Z,95486.00
2018-12-19T01:29:37.600Z,95490.00
2018-12-19T01:32:07.106Z,95482.00
2018-12-19T01:34:36.500Z,95488.00
2018-12-19T01:37:06.599Z,95486.00
2018-12-19T01:39:37.221Z,95483.00
2018-12-19T01:42:06.590Z,95478.00
2018-12-19T01:44:36.068Z,95475.00
2018-12-19T01:47:05.492Z,95480.00
2018-12-19T01:49:35.084Z,95471.00
2018-12-19T01:52:04.496Z,95478.00
2018-12-19T01:54:34.639Z,95470.00
2018-12-19T01:57:04.138Z,95466.00
2018-12-19T01:59:33.754Z,95463.00
2018-12-19T02:02:03.184Z,95458.00
2018-12-19T02:04:32.662Z,95469.00
2018-12-19T02:07:02.037Z,95470.00
2018-12-19T02:09:31.564Z,95463.00
2018-12-19T02:12:01.392Z,95462.00
2018-12-19T02:14:31.865Z,95458.00
2018-12-19T02:17:01.351Z,95452.00
2018-12-19T02:19:31.219Z,95463.00
2018-12-19T02:22:00.591Z,95460.00
2018-12-19T02:24:31.079Z,95464.00
2018-12-19T02:27:01.169Z,95468.00
2018-12-19T02:29:30.889Z,95467.00
2018-12-19T02:32:03.015Z,95469.00
2018-12-19T02:34:32.567Z,95473.00
2018-12-19T02:37:02.742Z,95466.00
2018-12-19T02:39:36.099Z,95462.00
2018-12-19T02:42:04.225Z,95451.00
2018-12-19T02:44:34.794Z,95463.00
2018-12-19T02:47:04.353Z,95469.00
2018-12-19T02:49:34.103Z,95473.00
2018-12-19T02:52:03.570Z,95464.00
2018-12-19T02:54:32.966Z,95479.00
2018-12-19T02:57:02.590Z,95490.00
2018-12-19T02:59:32.143Z,95495.00
2018-12-19T03:02:01.743Z,95497.00
2018-12-19T03:04:31.242Z,95486.00
2018-12-19T03:07:00.647Z,95485.00
2018-12-19T03:09:30.035Z,95479.00
2018-12-19T03:11:59.407Z,95496.00
2018-12-19T03:14:28.855Z,95506.00
2018-12-19T03:16:58.757Z,95499.00
2018-12-19T03:19:28.227Z,95492.00
2018-12-19T03:21:58.857Z,95498.00
2018-12-19T03:24:28.851Z,95507.00
2018-12-19T03:26:58.281Z,95512.00
2018-12-19T03:29:27.787Z,95510.00
2018-12-19T03:31:57.278Z,95500.00
2018-12-19T03:34:28.799Z,95507.00
2018-12-19T03:36:58.641Z,95515.00
2018-12-19T03:39:28.961Z,95516.00
2018-12-19T03:41:59.041Z,95523.00
2018-12-19T03:44:28.815Z,95525.00
2018-12-19T03:46:58.483Z,95523.00
2018-12-19T03:49:28.291Z,95505.00
2018-12-19T03:51:57.757Z,95512.00
2018-12-19T03:54:27.824Z,95500.00
2018-12-19T03:56:58.150Z,95486.00
2018-12-19T03:59:27.546Z,95482.00
2018-12-19T04:01:56.888Z,95490.00
2018-12-19T04:04:26.765Z,95484.00
2018-12-19T04:06:56.137Z,95490.00
2018-12-19T04:09:25.586Z,95493.00
2018-12-19T04:11:55.255Z,95492.00
2018-12-19T04:14:24.605Z,95496.00
2018-12-19T04:16:54.538Z,95487.00
2018-12-19T04:19:23.982Z,95494.00
2018-12-19T04:21:53.335Z,95505.00
2018-12-19T04:24:22.688Z,95516.00
2018-12-19T04:26:52.416Z,95522.00
2018-12-19T04:29:21.821Z,95522.00
2018-12-19T04:31:51.402Z,95514.00
2018-12-19T04:34:20.993Z,95510.00
2018-12-19T04:36:50.434Z,95500.00
2018-12-19T04:39:20.288Z,95490.00
2018-12-19T04:41:50.516Z,95488.00
2018-12-19T04:44:20.116Z,95479.00
2018-12-19T04:46:49.477Z,95494.00
2018-12-19T04:49:18.924Z,95491.00
2018-12-19T04:51:48.979Z,95496.00
2018-12-19T04:54:18.426Z,95492.00
2018-12-19T04:56:47.885Z,95493.00
2018-12-19T04:59:17.360Z,95499.00
2018-12-19T05:01:47.541Z,95499.00
2018-12-19T05:04:17.979Z,95501.00
2018-12-19T05:06:47.353Z,95502.00
2018-12-19T05:09:16.727Z,95504.00
2018-12-19T05:11:46.219Z,95499.00
2018-12-19T05:14:17.365Z,95489.00
2018-12-19T05:16:46.780Z,95491.00
2018-12-19T05:19:16.329Z,95493.00
2018-12-19T05:21:46.329Z,95496.00
2018-12-19T05:24:15.920Z,95497.00
2018-12-19T05:26:45.514Z,95491.00
2018-12-19T05:29:14.951Z,95489.00
2018-12-19T05:31:44.398Z,95494.00
2018-12-19T05:34:14.322Z,95503.00
2018-12-19T05:36:43.692Z,95494.00
2018-12-19T05:39:13.028Z,95497.00
2018-12-19T05:41:42.421Z,95492.00
2018-12-19T05:44:11.907Z,95499.00
2018-12-19T05:46:41.512Z,95496.00
2018-12-19T05:49:10.911Z,95500.00
2018-12-19T05:51:40.873Z,95502.00
2018-12-19T05:54:10.229Z,95491.00
2018-12-19T05:56:39.637Z,95479.00
2018-12-19T05:59:09.009Z,95480.00
2018-12-19T06:01:42.267Z,95481.00
2018-12-19T06:04:12.723Z,95479.00
2018-12-19T06:06:45.641Z,95494.00
2018-12-19T06:09:15.501Z,95498.00
2018-12-19T06:11:45.199Z,95495.00
2018-12-19T06:14:15.125Z,95498.00
2018-12-19T06:16:44.467Z,95495.00
2018-12-19T06:19:14.030Z,95503.00
2018-12-19T06:21:47.461Z,95505.00
2018-12-19T06:24:16.856Z,95496.00
2018-12-19T06:26:46.177Z,95501.00
2018-12-19T06:29:16.373Z,95507.00
2018-12-19T06:31:47.449Z,95515.00
2018-12-19T06:34:17.302Z,95506.00
2018-12-19T06:36:46.877Z,95513.00
2018-12-19T06:39:16.269Z,95510.00
2018-12-19T06:41:45.861Z,95501.00
2018-12-19T06:44:15.468Z,95501.00
2018-12-19T06:46:47.461Z,95502.00
2018-12-19T06:49:17.070Z,95502.00
2018-12-19T06:51:46.647Z,95501.00
2018-12-19T06:54:16.017Z,95497.00
2018-12-19T06:56:45.607Z,95501.00
2018-12-19T06:59:14.960Z,95505.00
2018-12-19T07:01:44.359Z,95507.00
2018-12-19T07:04:14.104Z,95503.00
2018-12-19T07:06:43.659Z,95505.00
2018-12-19T07:09:16.488Z,95497.00
2018-12-19T07:11:46.316Z,95504.00
2018-12-19T07:14:17.786Z,95504.00
2018-12-19T07:16:48.066Z,95514.00
2018-12-19T07:19:17.524Z,95519.00
2018-12-19T07:21:47.018Z,95514.00
2018-12-19T07:24:16.334Z,95501.00
2018-12-19T07:26:45.793Z,95513.00
2018-12-19T07:29:15.116Z,95515.00
2018-12-19T07:31:44.602Z,95510.00
2018-12-19T07:34:14.057Z,95514.00
2018-12-19T07:36:43.715Z,95524.00
2018-12-19T07:39:13.083Z,95530.00
2018-12-19T07:41:42.491Z,95528.00
2018-12-19T07:44:11.888Z,95530.00
2018-12-19T07:46:41.273Z,95531.00
2018-12-19T07:49:10.883Z,95540.00
2018-12-19T07:51:40.715Z,95542.00
2018-12-19T07:54:10.782Z,95546.00
2018-12-19T07:56:40.340Z,95543.00
2018-12-19T07:59:09.728Z,95547.00
2018-12-19T08:01:39.269Z,95537.00
2018-12-19T08:04:08.812Z,95548.00
2018-12-19T08:06:38.349Z,95545.00
2018-12-19T08:09:09.482Z,95547.00
2018-12-19T08:11:38.894Z,95541.00
2018-12-19T08:14:08.273Z,95540.00
2018-12-19T08:16:38.301Z,95540.00
2018-12-19T08:19:08.488Z,95558.00
2018-12-19T08:21:37.844Z,95553.00
2018-12-19T08:24:07.550Z,95544.00
2018-12-19T08:26:36.929Z,95543.00
2018-12-19T08:29:06.296Z,95550.00
2018-12-19T08:31:35.630Z,95547.00
2018-12-19T08:34:05.294Z,95552.00
2018-12-19T08:36:34.740Z,95555.00
2018-12-19T08:39:06.512Z,95551.00
2018-12-19T08:41:41.356Z,95561.00
2018-12-19T08:44:10.776Z,95565.00
2018-12-19T08:46:40.278Z,95555.00
2018-12-19T08:49:09.696Z,95553.00
2018-12-19T08:51:39.146Z,95563.00
2018-12-19T08:54:08.474Z,95550.00
2018-12-19T08:56:37.838Z,95554.00
2018-12-19T08:59:07.259Z,95557.00
2018-12-19T09:01:36.597Z,95556.00
2018-12-19T09:04:05.938Z,95555.00
2018-12-19T09:06:35.502Z,95549.00
2018-12-19T09:09:07.555Z,95552.00
2018-12-19T09:11:36.899Z,95544.00
2018-12-19T09:14:07.354Z,95547.00
2018-12-19T09:16:36.710Z,95546.00
2018-12-19T09:19:06.435Z,95541.00
2018-12-19T09:21:36.705Z,95546.00
2018-12-19T09:24:06.051Z,95537.00
2018-12-19T09:26:36.051Z,95540.00
2018-12-19T09:29:05.967Z,95547.00
2018-12-19T09:31:35.523Z,95555.00
2018-12-19T09:34:07.022Z,95560.00
2018-12-19T09:36:38.333Z,95558.00
2018-12-19T09:39:08.925Z,95558.00
2018-12-19T09:41:38.683Z,95551.00
2018-12-19T09:44:10.587Z,95548.00
2018-12-19T09:46:40.569Z,95544.00
2018-12-19T09:49:12.622Z,95541.00
2018-12-19T09:51:46.560Z,95557.00
2018-12-19T09:54:23.213Z,95565.00
2018-12-19T09:56:55.496Z,95565.00
2018-12-19T09:59:30.674Z,95566.00
2018-12-19T10:02:02.482Z,95561.00
2018-12-19T10:04:33.582Z,95550.00
2018-12-19T10:07:02.938Z,95544.00
2018-12-19T10:09:34.170Z,95541.00
2018-12-19T10:12:04.306Z,95547.00
2018-12-19T10:14:36.016Z,95550.00
2018-12-19T10:17:07.686Z,95541.00
2018-12-19T10:19:37.190Z,95536.00
2018-12-19T10:22:06.539Z,95518.00
2018-12-19T10:24:46.273Z,95512.00
2018-12-19T10:27:24.151Z,95509.00
2018-12-19T10:29:54.682Z,95505.00
2018-12-19T10:32:25.327Z,95505.00
2018-12-19T10:34:54.691Z,95507.00
2018-12-19T10:37:26.094Z,95502.00
2018-12-19T10:39:57.071Z,95498.00
2018-12-19T10:42:29.441Z,95508.00
2018-12-19T10:45:00.657Z,95507.00
2018-12-19T10:47:30.469Z,95500.00
2018-12-19T10:50:00.543Z,95501.00
2018-12-19T10:52:32.357Z,95507.00
2018-12-19T10:55:02.944Z,95502.00
2018-12-19T10:57:33.061Z,95503.00
2018-12-19T11:00:02.781Z,95486.00
2018-12-19T11:02:32.250Z,95484.00
2018-12-19T11:05:01.598Z,95483.00
2018-12-19T11:07:31.142Z,95482.00
2018-12-19T11:10:01.149Z,95489.00
2018-12-19T11:12:31.462Z,95475.00
2018-12-19T11:15:00.928Z,95474.00
2018-12-19T11:17:31.608Z,95472.00
2018-12-19T11:20:01.548Z,95465.00
2018-12-19T11:22:31.692Z,95472.00
2018-12-19T11:25:01.686Z,95472.00
2018-12-19T11:27:31.556Z,95479.00
2018-12-19T11:30:01.150Z,95473.00
2018-12-19T11:32:32.313Z,95464.00
2018-12-19T11:35:05.634Z,95454.00
2018-12-19T11:37:39.121Z,95446.00
2018-12-19T11:40:10.057Z,95438.00
2018-12-19T11:42:40.095Z,95437.00
2018-12-19T11:45:10.862Z,95439.00
2018-12-19T11:47:40.755Z,95429.00
2018-12-19T11:50:12.493Z,95426.00
2018-12-19T11:52:42.603Z,95432.00
2018-12-19T11:55:14.890Z,95424.00
2018-12-19T11:57:44.723Z,95415.00
2018-12-19T12:00:14.539Z,95416.00
2018-12-19T12:02:44.373Z,95412.00
2018-12-19T12:05:15.169Z,95416.00
2018-12-19T12:07:46.638Z,95413.00
2018-12-19T12:10:16.177Z,95401.00
2018-12-19T12:12:47.112Z,95397.00
2018-12-19T12:15:16.898Z,95401.00
2018-12-19T12:17:46.320Z,95401.00
2018-12-19T12:20:15.658Z,95392.00
2018-12-19T12:22:47.790Z,95391.00
2018-12-19T12:25:19.131Z,95397.00
2018-12-19T12:27:48.600Z,95380.00
2018-12-19T12:30:17.916Z,95389.00
2018-12-19T12:32:47.262Z,95383.00
2018-12-19T12:35:16.651Z,95387.00
2018-12-19T12:37:45.983Z,95380.00
2018-12-19T12:40:15.340Z,95390.00
2018-12-19T12:42:44.699Z,95394.00
2018-12-19T12:45:14.093Z,95402.00
2018-12-19T12:47:43.617Z,95399.00
2018-12-19T12:50:13.062Z,95401.00
2018-12-19T12:52:42.535Z,95394.00
2018-12-19T12:55:12.691Z,95387.00
2018-12-19T12:57:42.653Z,95391.00
2018-12-19T13:00:13.046Z,95386.00
2018-12-19T13:02:43.287Z,95378.00
2018-12-19T13:05:13.493Z,95380.00
2018-12-19T13:07:44.561Z,95380.00
2018-12-19T13:10:14.824Z,95367.00
2018-12-19T13:12:44.178Z,95378.00
2018-12-19T13:15:15.732Z,95376.00
2018-12-19T13:17:45.256Z,95359.00
2018-12-19T13:20:14.614Z,95362.00
2018-12-19T13:22:43.978Z,95371.00
2018-12-19T13:25:13.332Z,95371.00
2018-12-19T13:27:42.985Z,95371.00
2018-12-19T13:30:12.702Z,95373.00
2018-12-19T13:32:42.086Z,95368.00
2018-12-19T13:35:11.575Z,95369.00
2018-12-19T13:37:41.193Z,95360.00
2018-12-19T13:40:10.704Z,95365.00
2018-12-19T13:42:40.143Z,95358.00
2018-12-19T13:45:09.619Z,95362.00
2018-12-19T13:47:39.460Z,95363.00
2018-12-19T13:50:10.252Z,95350.00
2018-12-19T13:52:39.954Z,95359.00
2018-12-19T13:55:10.204Z,95352.00
2018-12-19T13:57:40.711Z,95345.00
2018-12-19T14:00:12.180Z,95341.00
2018-12-19T14:02:41.980Z,95343.00
2018-12-19T14:05:11.457Z,95334.00
2018-12-19T14:07:41.128Z,95344.00
2018-12-19T14:10:11.156Z,95336.00
2018-12-19T14:12:40.542Z,95324.00
2018-12-19T14:15:10.287Z,95322.00
2018-12-19T14:17:39.866Z,95323.00
2018-12-19T14:20:10.819Z,95330.00
2018-12-19T14:22:40.983Z,95329.00
2018-12-19T14:25:10.483Z,95322.00
2018-12-19T14:27:39.840Z,95332.00
2018-12-19T14:30:09.952Z,95331.00
2018-12-19T14:32:39.278Z,95328.00
2018-12-19T14:35:08.774Z,95327.00
2018-12-19T14:37:38.142Z,95326.00
2018-12-19T14:40:07.835Z,95317.00
2018-12-19T14:42:37.315Z,95313.00
2018-12-19T14:45:08.692Z,95312.00
2018-12-19T14:47:38.093Z,95304.00
2018-12-19T14:50:08.442Z,95295.00
2018-12-19T14:52:37.783Z,95293.00
2018-12-19T14:55:07.365Z,95283.00
2018-12-19T14:57:37.650Z,95284.00
2018-12-19T15:00:10.186Z,95286.00
2018-12-19T15:02:39.930Z,95294.00
2018-12-19T15:05:09.538Z,95303.00
2018-12-19T15:07:38.928Z,95309.00
2018-12-19T15:10:09.626Z,95296.00
2018-12-19T15:12:39.965Z,95301.00
2018-12-19T15:15:10.073Z,95298.00
2018-12-19T15:17:40.441Z,95318.00
2018-12-19T15:20:10.047Z,95332.00
2018-12-19T15:22:39.618Z,95324.00
2018-12-19T15:25:09.064Z,95324.00
2018-12-19T15:27:38.416Z,95322.00
2018-12-19T15:30:08.033Z,95314.00
2018-12-19T15:32:38.621Z,95322.00
2018-12-19T15:35:08.475Z,95316.00
2018-12-19T15:37:37.893Z,95311.00
2018-12-19T15:40:07.353Z,95305.00
2018-12-19T15:42:36.812Z,95306.00
2018-12-19T15:45:06.755Z,95295.00
2018-12-19T15:47:36.309Z,95299.00
2018-12-19T15:50:07.523Z,95293.00
2018-12-19T15:52:36.965Z,95304.00
2018-12-19T15:55:06.596Z,95295.00
2018-12-19T15:57:36.085Z,95285.00
2018-12-19T16:00:08.593Z,95277.00
2018-12-19T16:02:38.051Z,95279.00
2018-12-19T16:05:07.558Z,95269.00
2018-12-19T16:07:37.127Z,95251.00
2018-12-19T16:10:08.107Z,95236.00
2018-12-19T16:12:39.306Z,95241.00
2018-12-19T16:15:09.157Z,95253.00
2018-12-19T16:17:38.646Z,95252.00
2018-12-19T16:20:09.550Z,95250.00
2018-12-19T16:22:38.910Z,95254.00
2018-12-19T16:25:08.495Z,95244.00
2018-12-19T16:27:37.959Z,95233.00
2018-12-19T16:30:10.417Z,95230.00
2018-12-19T16:32:39.872Z,95231.00
2018-12-19T16:35:09.442Z,95232.00
2018-12-19T16:37:38.790Z,95244.00
2018-12-19T16:40:08.418Z,95240.00
2018-12-19T16:42:37.798Z,95242.00
2018-12-19T16:45:08.653Z,95244.00
2018-12-19T16:47:38.000Z,95246.00
2018-12-19T16:50:08.110Z,95249.00
2018-12-19T16:52:37.463Z,95257.00
2018-12-19T16:55:06.850Z,95258.00
2018-12-19T16:57:36.286Z,95258.00
2018-12-19T17:00:07.305Z,95266.00
2018-12-19T17:02:36.730Z,95266.00
2018-12-19T17:05:07.343Z,95279.00
2018-12-19T17:07:36.724Z,95281.00
2018-12-19T17:10:07.361Z,95285.00
2018-12-19T17:12:36.777Z,95274.00
2018-12-19T17:15:06.791Z,95276.00
2018-12-19T17:17:36.261Z,95271.00
2018-12-19T17:20:07.263Z,95268.00
2018-12-19T17:22:36.755Z,95274.00
2018-12-19T17:25:06.446Z,95275.00
2018-12-19T17:27:35.918Z,95261.00
2018-12-19T17:30:05.847Z,95253.00
2018-12-19T17:32:35.874Z,95252.00
2018-12-19T17:35:06.508Z,95254.00
2018-12-19T17:37:36.776Z,95255.00
2018-12-19T17:40:07.012Z,95246.00
2018-12-19T17:42:36.440Z,95242.00
2018-12-19T17:45:07.580Z,95244.00
2018-12-19T17:47:37.016Z,95240.00
2018-12-19T17:50:07.402Z,95247.00
2018-12-19T17:52:36.886Z,95238.00
2018-12-19T17:55:06.997Z,95242.00
2018-12-19T17:57:36.444Z,95237.00
2018-12-19T18:00:06.646Z,95220.00
2018-12-19T18:02:36.192Z,95217.00
2018-12-19T18:05:06.827Z,95194.00
2018-12-19T18:07:50.267Z,95193.00
2018-12-19T18:10:19.659Z,95186.00
2018-12-19T18:12:49.063Z,95181.00
2018-12-19T18:15:18.443Z,95176.00
2018-12-19T18:17:47.804Z,95166.00
2018-12-19T18:20:17.205Z,95173.00
2018-12-19T18:22:46.916Z,95174.00
2018-12-19T18:25:16.317Z,95164.00
2018-12-19T18:27:45.752Z,95162.00
2018-12-19T18:30:15.268Z,95162.00
2018-12-19T18:32:44.676Z,95166.00
2018-12-19T18:35:14.066Z,95169.00
2018-12-19T18:37:43.478Z,95164.00
2018-12-19T18:40:12.976Z,95163.00
2018-12-19T18:42:42.450Z,95180.00
2018-12-19T18:45:12.591Z,95184.00
2018-12-19T18:47:42.113Z,95192.00
2018-12-19T18:50:15.063Z,95191.00
2018-12-19T18:52:44.427Z,95187.00
2018-12-19T18:55:14.145Z,95190.00
2018-12-19T18:57:48.597Z,95185.00
2018-12-19T19:00:23.206Z,95196.00
2018-12-19T19:02:52.723Z,95187.00
2018-12-19T19:05:22.464Z,95204.00
2018-12-19T19:07:52.115Z,95211.00
2018-12-19T19:10:21.733Z,95214.00
2018-12-19T19:12:51.379Z,95205.00
2018-12-19T19:15:21.173Z,95204.00
2018-12-19T19:17:51.477Z,95193.00
2018-12-19T19:20:21.454Z,95196.00
2018-12-19T19:22:51.147Z,95196.00
2018-12-19T19:25:20.699Z,95203.00
2018-12-19T19:27:51.419Z,95192.00
2018-12-19T19:30:22.221Z,95195.00
2018-12-19T19:32:52.019Z,95187.00
2018-12-19T19:35:21.910Z,95189.00
2018-12-19T19:37:52.564Z,95196.00
2018-12-19T19:40:22.887Z,95207.00
2018-12-19T19:42:52.540Z,95197.00
2018-12-19T19:45:22.697Z,95194.00
2018-12-19T19:47:52.871Z,95210.00
2018-12-19T19:50:22.701Z,95215.00
2018-12-19T19:52:52.264Z,95220.00
2018-12-19T19:55:22.945Z,95215.00
2018-12-19T19:57:53.089Z,95220.00
2018-12-19T20:00:30.343Z,95226.00
2018-12-19T20:02:59.837Z,95224.00
2018-12-19T20:05:29.632Z,95231.00
2018-12-19T20:07:59.446Z,95245.00
2018-12-19T20:10:31.124Z,95247.00
2018-12-19T20:13:01.746Z,95236.00
2018-12-19T20:15:32.176Z,95239.00
2018-12-19T20:18:01.835Z,95255.00
2018-12-19T20:20:31.587Z,95245.00
2018-12-19T20:23:01.389Z,95242.00
2018-12-19T20:25:30.963Z,95229.00
2018-12-19T20:28:01.317Z,95245.00
2018-12-19T20:30:31.157Z,95252.00
2018-12-19T20:33:01.528Z,95247.00
2018-12-19T20:35:33.125Z,95246.00
2018-12-19T20:38:02.715Z,95246.00
2018-12-19T20:40:32.637Z,95235.00
2018-12-19T20:43:06.497Z,95245.00
2018-12-19T20:45:34.632Z,95247.00
2018-12-19T20:48:04.025Z,95245.00
2018-12-19T20:50:33.723Z,95243.00
2018-12-19T20:53:03.299Z,95249.00
2018-12-19T20:55:33.151Z,95259.00
2018-12-19T20:58:02.812Z,95258.00
2018-12-19T21:00:33.131Z,95265.00
2018-12-19T21:03:02.727Z,95261.00
2018-12-19T21:05:37.846Z,95266.00
2018-12-19T21:08:07.341Z,95258.00
2018-12-19T21:10:36.907Z,95261.00
2018-12-19T21:13:06.437Z,95258.00
2018-12-19T21:15:36.159Z,95259.00
2018-12-19T21:18:11.282Z,95269.00
2018-12-19T21:20:41.688Z,95263.00
2018-12-19T21:23:11.217Z,95270.00
2018-12-19T21:25:40.785Z,95269.00
2018-12-19T21:28:10.534Z,95272.00
2018-12-19T21:30:40.038Z,95272.00
2018-12-19T21:33:13.922Z,95271.00
2018-12-19T21:35:40.929Z,95271.00
2018-12-19T21:38:10.447Z,95275.00
2018-12-19T21:40:40.445Z,95269.00
2018-12-19T21:43:10.282Z,95267.00
2018-12-19T21:45:39.799Z,95266.00
2018-12-19T21:48:10.481Z,95266.00
2018-12-19T21:50:39.899Z,95281.00
2018-12-19T21:53:09.408Z,95286.00
2018-12-19T21:55:39.083Z,95283.00
2018-12-19T21:58:08.425Z,95287.00
2018-12-19T22:00:39.899Z,95288.00
2018-12-19T22:03:09.667Z,95285.00
2018-12-19T22:05:40.905Z,95295.00
2018-12-19T22:08:11.030Z,95286.00
2018-12-19T22:10:40.393Z,95302.00
2018-12-19T22:13:09.993Z,95296.00
2018-12-19T22:15:39.971Z,95297.00
2018-12-19T22:18:14.919Z,95295.00
2018-12-19T22:20:44.466Z,95292.00
2018-12-19T22:23:14.242Z,95278.00
2018-12-19T22:25:44.013Z,95281.00
2018-12-19T22:28:13.395Z,95281.00
2018-12-19T22:30:42.918Z,95282.00
2018-12-19T22:33:13.002Z,95273.00
2018-12-19T22:35:42.606Z,95270.00
2018-12-19T22:38:11.990Z,95276.00
2018-12-19T22:40:41.570Z,95276.00
2018-12-19T22:43:10.991Z,95280.00
2018-12-19T22:45:40.470Z,95280.00
2018-12-19T22:48:09.978Z,95278.00
2018-12-19T22:50:39.468Z,95277.00
2018-12-19T22:53:08.876Z,95273.00
2018-12-19T22:55:38.420Z,95280.00
2018-12-19T22:58:08.091Z,95280.00
2018-12-19T23:00:43.941Z,95275.00
2018-12-19T23:03:13.356Z,95281.00
2018-12-19T23:05:48.150Z,95284.00
2018-12-19T23:08:17.594Z,95270.00
2018-12-19T23:10:46.960Z,95279.00
2018-12-19T23:13:16.674Z,95279.00
2018-12-19T23:15:46.578Z,95277.00
2018-12-19T23:18:21.511Z,95288.00
2018-12-19T23:20:51.181Z,95280.00
2018-12-19T23:23:20.751Z,95270.00
2018-12-19T23:25:50.192Z,95273.00
2018-12-19T23:28:20.251Z,95266.00
2018-12-19T23:30:49.773Z,95274.00
2018-12-19T23:33:19.288Z,95285.00
2018-12-19T23:35:48.729Z,95279.00
2018-12-19T23:38:18.248Z,95272.00
2018-12-19T23:40:48.150Z,95278.00
2018-12-19T23:43:17.714Z,95270.00
2018-12-19T23:45:47.183Z,95268.00
2018-12-19T23:48:16.760Z,95286.00
2018-12-19T23:50:46.235Z,95288.00
2018-12-19T23:53:15.519Z,95280.00
2018-12-19T23:55:44.885Z,95279.00
2018-12-19T23:58:14.219Z,95286.00
